createdAt,value
2022-08-14T00:03:36.984Z,2.80
2022-08-14T00:08:44.478Z,2.85
2022-08-14T00:13:52.419Z,2.70
2022-08-14T00:19:06.099Z,2.97
2022-08-14T00:24:28.384Z,3.00
2022-08-14T00:29:33.127Z,2.90
2022-08-14T00:34:46.670Z,3.00
2022-08-14T00:39:49.035Z,2.95
2022-08-14T00:44:51.414Z,2.75
2022-08-14T00:49:57.202Z,3.00
2022-08-14T00:54:59.435Z,2.75
2022-08-14T01:00:34.260Z,3.05
2022-08-14T01:05:50.946Z,2.88
2022-08-14T01:10:55.497Z,3.78
2022-08-14T01:16:01.233Z,3.35
2022-08-14T01:21:07.263Z,3.60
2022-08-14T01:26:11.663Z,3.50
2022-08-14T01:31:16.746Z,3.28
2022-08-14T01:36:23.852Z,3.85
2022-08-14T01:41:30.252Z,3.95
2022-08-14T01:46:37.132Z,3.80
2022-08-14T01:51:39.420Z,3.60
2022-08-14T01:56:44.726Z,3.92
2022-08-14T02:01:57.841Z,3.60
2022-08-14T02:07:03.050Z,3.90
2022-08-14T02:12:09.146Z,3.83
2022-08-14T02:17:13.371Z,3.75
2022-08-14T02:22:28.946Z,3.88
2022-08-14T02:28:24.820Z,4.18
2022-08-14T02:32:58.841Z,3.55
2022-08-14T02:38:00.914Z,4.15
2022-08-14T02:43:07.847Z,3.80
2022-08-14T02:48:10.583Z,3.67
2022-08-14T02:53:33.204Z,3.63
2022-08-14T02:58:38.588Z,3.85
2022-08-14T03:03:45.869Z,3.50
2022-08-14T03:08:48.438Z,3.75
2022-08-14T03:13:51.987Z,4.45
2022-08-14T03:18:59.784Z,3.80
2022-08-14T03:24:21.448Z,3.67
2022-08-14T03:29:26.564Z,4.25
2022-08-14T03:34:48.555Z,4.00
2022-08-14T03:39:49.860Z,4.20
2022-08-14T03:45:20.262Z,5.00
2022-08-14T03:50:14.142Z,4.07
2022-08-14T03:55:25.741Z,4.10
2022-08-14T04:00:43.317Z,4.40
2022-08-14T04:05:48.785Z,4.23
2022-08-14T04:10:50.917Z,3.60
2022-08-14T04:16:01.143Z,4.53
2022-08-14T04:21:04.294Z,4.50
2022-08-14T04:26:08.618Z,4.63
2022-08-14T04:31:18.307Z,5.00
2022-08-14T04:36:59.862Z,4.30
2022-08-14T04:42:19.842Z,4.77
2022-08-14T04:47:40.329Z,4.10
2022-08-14T04:52:49.257Z,4.17
2022-08-14T04:57:56.520Z,4.43
2022-08-14T05:03:03.142Z,4.90
2022-08-14T05:08:32.403Z,4.50
2022-08-14T05:14:06.591Z,4.73
2022-08-14T05:19:25.217Z,4.80
2022-08-14T05:24:18.788Z,4.43
2022-08-14T05:29:20.958Z,4.60
2022-08-14T05:34:23.809Z,4.50
2022-08-14T05:39:31.690Z,4.60
2022-08-14T05:44:33.773Z,4.25
2022-08-14T05:49:35.490Z,4.22
2022-08-14T05:54:39.775Z,4.75
2022-08-14T05:59:41.945Z,4.35
2022-08-14T06:04:48.227Z,4.28
2022-08-14T06:09:52.493Z,4.15
2022-08-14T06:14:54.150Z,4.30
2022-08-14T06:19:56.162Z,4.15
2022-08-14T06:24:57.958Z,4.15
2022-08-14T06:29:59.530Z,4.00
2022-08-14T06:35:12.978Z,4.22
2022-08-14T06:40:26.200Z,4.43
2022-08-14T06:45:30.016Z,4.25
2022-08-14T06:50:31.693Z,4.00
2022-08-14T06:55:36.978Z,4.07
2022-08-14T07:01:02.822Z,4.03
2022-08-14T07:06:06.223Z,4.15
2022-08-14T07:11:23.012Z,4.18
2022-08-14T07:16:24.542Z,4.47
2022-08-14T07:21:29.266Z,4.50
2022-08-14T07:26:32.477Z,3.72
2022-08-14T07:31:34.094Z,4.22
2022-08-14T07:36:35.693Z,4.30
2022-08-14T07:41:37.596Z,3.92
2022-08-14T07:46:39.882Z,4.32
2022-08-14T07:51:41.747Z,4.05
2022-08-14T07:56:46.980Z,3.75
2022-08-14T08:01:51.576Z,4.03
2022-08-14T08:06:53.725Z,3.75
2022-08-14T08:11:57.282Z,3.90
2022-08-14T08:16:59.645Z,4.10
2022-08-14T08:22:03.403Z,3.53
2022-08-14T08:27:16.826Z,3.80
2022-08-14T08:32:19.114Z,3.65
2022-08-14T08:37:20.957Z,3.50
2022-08-14T08:42:31.608Z,3.40
2022-08-14T08:47:40.820Z,4.05
2022-08-14T08:52:51.294Z,3.70
2022-08-14T08:58:04.483Z,3.60
2022-08-14T09:03:12.270Z,3.40
2022-08-14T09:08:26.630Z,3.47
2022-08-14T09:13:33.647Z,3.30
2022-08-14T09:18:36.096Z,3.55
2022-08-14T09:24:26.452Z,3.38
2022-08-14T09:28:59.820Z,3.17
2022-08-14T09:34:09.291Z,3.63
2022-08-14T09:40:10.482Z,3.22
2022-08-14T09:45:40.010Z,3.33
2022-08-14T09:56:06.094Z,3.10
2022-08-14T10:01:14.764Z,2.83
2022-08-14T10:06:19.863Z,3.60
2022-08-14T10:11:23.164Z,2.78
2022-08-14T10:16:33.804Z,2.92
2022-08-14T10:21:58.218Z,2.97
2022-08-14T10:27:02.057Z,3.00
2022-08-14T10:32:17.843Z,2.83
2022-08-14T10:37:38.803Z,2.92
2022-08-14T10:42:43.726Z,2.92
2022-08-14T10:48:08.068Z,2.63
2022-08-14T10:53:08.120Z,2.47
2022-08-14T10:58:14.163Z,2.47
2022-08-14T11:03:26.431Z,2.50
2022-08-14T11:08:37.341Z,2.50
2022-08-14T11:13:44.055Z,2.63
2022-08-14T11:18:50.807Z,2.55
2022-08-14T11:23:53.740Z,2.78
2022-08-14T11:29:00.314Z,2.70
2022-08-14T11:34:02.171Z,2.50
2022-08-14T11:39:03.891Z,2.50
2022-08-14T11:44:17.683Z,2.60
2022-08-14T11:49:35.121Z,2.53
2022-08-14T11:54:37.436Z,2.42
2022-08-14T11:59:44.330Z,2.60
2022-08-14T12:04:51.459Z,2.60
2022-08-14T12:09:56.208Z,2.53
2022-08-14T12:15:01.131Z,2.63
2022-08-14T12:20:05.816Z,2.65
2022-08-14T12:25:13.591Z,2.40
2022-08-14T12:30:39.462Z,2.47
2022-08-14T12:35:43.831Z,2.15
2022-08-14T12:40:55.991Z,2.40
2022-08-14T12:45:57.918Z,2.20
2022-08-14T12:51:00.003Z,2.40
2022-08-14T12:56:21.554Z,2.13
2022-08-14T13:01:30.917Z,2.22
2022-08-14T13:06:37.396Z,2.65
2022-08-14T13:11:45.143Z,2.40
2022-08-14T13:16:50.639Z,2.10
2022-08-14T13:22:05.124Z,2.28
2022-08-14T13:27:10.091Z,2.35
2022-08-14T13:32:12.954Z,2.28
2022-08-14T13:37:17.055Z,2.42
2022-08-14T13:42:21.309Z,2.15
2022-08-14T13:47:29.671Z,2.20
2022-08-14T13:52:52.055Z,2.00
2022-08-14T13:58:04.294Z,2.22
2022-08-14T14:03:07.312Z,2.30
2022-08-14T14:08:18.786Z,2.25
2022-08-14T14:13:21.731Z,2.30
2022-08-14T14:18:33.946Z,2.10
2022-08-14T14:23:37.720Z,2.08
2022-08-14T14:28:42.089Z,2.40
2022-08-14T14:33:48.972Z,2.50
2022-08-14T14:38:53.504Z,2.53
2022-08-14T14:43:57.630Z,2.13
2022-08-14T14:49:01.344Z,2.30
2022-08-14T14:54:06.570Z,2.20
2022-08-14T14:59:09.297Z,2.38
2022-08-14T15:04:20.175Z,2.60
2022-08-14T15:09:23.703Z,2.97
2022-08-14T15:14:55.747Z,2.80
2022-08-14T15:19:56.373Z,2.75
2022-08-14T15:24:58.644Z,2.55
2022-08-14T15:30:00.662Z,2.85
2022-08-14T15:35:02.905Z,2.90
2022-08-14T15:40:16.253Z,2.60
2022-08-14T15:45:23.762Z,2.80
2022-08-14T15:50:26.064Z,2.58
2022-08-14T15:55:30.342Z,2.70
2022-08-14T16:00:52.505Z,2.40
2022-08-14T16:05:55.705Z,2.40
2022-08-14T16:10:59.972Z,2.78
2022-08-14T16:16:47.379Z,2.80
2022-08-14T16:21:31.460Z,2.67
2022-08-14T16:26:34.085Z,2.50
2022-08-14T16:31:39.925Z,2.53
2022-08-14T16:36:50.828Z,2.55
2022-08-14T16:41:53.624Z,2.85
2022-08-14T16:46:57.657Z,2.70
2022-08-14T16:52:04.446Z,2.45
2022-08-14T16:57:25.932Z,2.90
2022-08-14T17:02:35.048Z,2.53
2022-08-14T17:07:36.558Z,2.60
2022-08-14T17:12:46.576Z,2.60
2022-08-14T17:17:52.116Z,2.45
2022-08-14T17:23:11.017Z,2.42
2022-08-14T17:28:51.599Z,2.70
2022-08-14T17:33:44.750Z,2.40
2022-08-14T17:39:07.931Z,2.58
2022-08-14T17:44:13.876Z,2.60
2022-08-14T17:49:26.581Z,2.50
2022-08-14T17:54:36.424Z,2.50
2022-08-14T17:59:40.392Z,2.30
2022-08-14T18:04:44.080Z,2.35
2022-08-14T18:09:57.335Z,2.33
2022-08-14T18:15:16.776Z,2.67
2022-08-14T18:21:41.218Z,3.88
2022-08-14T18:25:47.138Z,3.97
2022-08-14T18:30:58.339Z,3.85
2022-08-14T18:36:47.900Z,3.00
2022-08-14T18:41:35.395Z,2.80
2022-08-14T18:47:15.131Z,2.75
2022-08-14T18:52:19.042Z,3.17
2022-08-14T18:57:21.070Z,2.65
2022-08-14T19:02:30.623Z,2.75
2022-08-14T19:07:34.168Z,2.53
2022-08-14T19:12:56.535Z,2.90
2022-08-14T19:18:13.914Z,2.83
2022-08-14T19:23:21.433Z,2.63
2022-08-14T19:28:43.642Z,2.55
2022-08-14T19:33:48.022Z,2.90
2022-08-14T19:38:59.188Z,2.75
2022-08-14T19:44:10.566Z,2.80
2022-08-14T19:49:14.028Z,2.83
2022-08-14T19:54:30.725Z,3.08
2022-08-14T19:59:36.707Z,2.70
2022-08-14T20:05:05.794Z,2.88
2022-08-14T20:11:03.429Z,2.55
2022-08-14T20:15:46.689Z,2.80
2022-08-14T20:20:49.285Z,3.03
2022-08-14T20:25:57.159Z,2.90
2022-08-14T20:31:17.857Z,2.70
2022-08-14T20:36:25.829Z,3.00
2022-08-14T20:41:28.326Z,2.85
2022-08-14T20:46:38.847Z,3.00
2022-08-14T20:51:54.481Z,2.80
2022-08-14T20:57:09.263Z,2.40
2022-08-14T21:02:38.638Z,2.53
2022-08-14T21:07:52.122Z,3.03
2022-08-14T21:13:11.930Z,3.08
2022-08-14T21:18:16.737Z,3.17
2022-08-14T21:23:18.653Z,2.80
2022-08-14T21:28:29.243Z,2.90
2022-08-14T21:33:34.385Z,3.20
2022-08-14T21:38:42.282Z,2.78
2022-08-14T21:43:44.225Z,3.38
2022-08-14T21:48:45.902Z,3.10
2022-08-14T21:53:58.834Z,3.10
2022-08-14T21:59:07.590Z,3.10
2022-08-14T22:04:32.661Z,3.15
2022-08-14T22:09:36.670Z,2.80
2022-08-14T22:14:55.128Z,2.90
2022-08-14T22:19:58.631Z,2.88
2022-08-14T22:25:00.933Z,3.15
2022-08-14T22:30:12.047Z,2.95
2022-08-14T22:35:15.794Z,2.92
2022-08-14T22:41:06.604Z,3.10
2022-08-14T22:45:39.178Z,2.85
2022-08-14T22:50:48.726Z,2.90
2022-08-14T22:55:54.729Z,3.75
2022-08-14T23:00:56.635Z,2.85
2022-08-14T23:05:59.273Z,3.17
2022-08-14T23:11:01.851Z,3.13
2022-08-14T23:16:04.926Z,3.38
2022-08-14T23:21:09.984Z,2.85
2022-08-14T23:26:47.842Z,2.92
2022-08-14T23:31:35.247Z,3.20
2022-08-14T23:36:53.478Z,3.00
2022-08-14T23:41:56.378Z,3.30
2022-08-14T23:47:03.242Z,3.58
2022-08-14T23:52:57.355Z,3.00
2022-08-14T23:57:30.682Z,2.88
